ADDS METAR Data INFO
IDs: Format: Raw Decoded Include TAF

Data at: 1714 UTC 23 Oct 2017

KILN 231654Z AUTO 20005KT 10SM FEW041 OVC049 17/16 A2976 RMK AO2 WSHFT 1549 RAE21B31E45 SLP076 P0005 T01670161
KILN 231629Z AUTO 20007KT 10SM FEW009 SCT027 OVC039 16/16 A2979 RMK AO2 WSHFT 1549 RAE21 P0005 T01610161
KILN 231618Z AUTO 22009KT 10SM -RA FEW007 BKN029 OVC035 16/16 A2979 RMK AO2 WSHFT 1549 P0005 T01610161
KILN 231609Z AUTO 22010KT 4SM -RA BR BKN009 BKN013 OVC029 16/16 A2980 RMK AO2 WSHFT 1549 CIG 006V010 P0005 T01610161
KILN 231604Z AUTO 21013KT 2SM RA BR FEW007 OVC011 16/16 A2980 RMK AO2 WSHFT 1549 P0005 T01610161
KILN 231601Z AUTO 21012KT 1 3/4SM RA BR BKN009 OVC013 17/17 A2980 RMK AO2 P0004 T01670167
KILN 231557Z AUTO 20014G19KT 2 1/2SM +RA BR SCT009 OVC013 17/17 A2980 RMK AO2 P0002 T01670167
KILN 231554Z AUTO 18013G19KT 4SM -RA BR BKN013 OVC065 17/17 A2980 RMK AO2 SLP088 P0008 T01670167
KILN 231549Z AUTO 16012G19KT 10SM -RA BKN013 BKN070 OVC100 17/17 A2979 RMK AO2 P0008
KILN 231510Z AUTO 14014G22KT 5SM RA BR FEW036 BKN075 OVC100 17/16 A2979 RMK AO2 P0005 T01670161
KILN 231454Z AUTO 14015G24KT 2SM +RA BR FEW036 BKN070 OVC110 17/16 A2981 RMK AO2 SLP092 P0003 60003 T01670156 58025
KILN 231354Z AUTO 13009KT 10SM -RA OVC110 17/14 A2983 RMK AO2 RAE04B37 SLP101 P0000 T01720139
KILN 231254Z AUTO 12008KT 9SM -RA FEW050 BKN065 OVC120 17/13 A2986 RMK AO2 RAB44 SLP111 P0000 T01670133
KILN 231154Z AUTO 12010KT 10SM SCT075 BKN100 17/13 A2988 RMK AO2 SLP118 T01720128 10178 20172 57027
KILN 231054Z AUTO 13008KT 10SM OVC080 18/13 A2992 RMK AO2 SLP127 T01780128 $
KILN 230954Z AUTO 14007KT 10SM CLR 17/13 A2993 RMK AO2 SLP132 T01720128 $
KILN 230854Z AUTO 14008KT 10SM CLR 17/12 A2997 RMK AO2 SLP142 T01720122 58017 $
KILN 230754Z AUTO 14006KT 10SM CLR 17/12 A2999 RMK AO2 SLP149 T01720117 $
KILN 230654Z AUTO 14007KT 10SM CLR 18/11 A3001 RMK AO2 SLP156 T01780111 $
KILN 230554Z AUTO 14007KT 10SM CLR 18/11 A3002 RMK AO2 SLP159 T01780111 10178 20161 56018 $
KILN 230454Z AUTO 14005KT 10SM CLR 17/11 A3003 RMK AO2 SLP164 T01720106 402390106 $
KILN 230354Z AUTO 14006KT 10SM CLR 17/11 A3005 RMK AO2 SLP171 T01720106 $
KILN 230254Z AUTO 13005KT 10SM CLR 17/11 A3007 RMK AO2 SLP182 T01670106 58016 $
KILN 230154Z AUTO 14005KT 10SM CLR 16/10 A3010 RMK AO2 SLP193 T01610100 $
KILN 230054Z AUTO 13006KT 10SM CLR 17/09 A3011 RMK AO2 SLP198 T01670094 $
KILN 222354Z AUTO 14005KT 10SM CLR 18/09 A3012 RMK AO2 SLP202 T01780094 10239 20178 56003 $
KILN 222254Z AUTO 16004KT 10SM CLR 19/09 A3012 RMK AO2 SLP201 T01940094 $
KILN 222154Z AUTO 17005KT 10SM CLR 21/10 A3013 RMK AO2 SLP200 T02110100 $
KILN 222054Z AUTO 19012G17KT 10SM CLR 23/09 A3013 RMK AO2 SLP201 T02280089 55012 $
KILN 221954Z AUTO 17012G20KT 10SM CLR 23/09 A3013 RMK AO2 SLP201 T02280089 $
KILN 221854Z AUTO 18010KT 10SM CLR 24/11 A3013 RMK AO2 SLP202 T02390106 $
KILN 221754Z AUTO 20014KT 10SM CLR 23/13 A3017 RMK AO2 SLP213 T02330128 10233 20128 58018 $
KILN 221654Z AUTO 20017KT 10SM CLR 23/12 A3020 RMK AO2 SLP225 T02280122 $
KILN 221554Z AUTO 18010KT 10SM CLR 22/12 A3022 RMK AO2 SLP229 T02220122 $
KILN 221454Z AUTO 18010KT 10SM CLR 20/12 A3022 RMK AO2 SLP232 T02000117 50005 $
KILN 221354Z AUTO 18008KT 10SM CLR 17/11 A3024 RMK AO2 SLP239 T01670111 $
KILN 221254Z AUTO 16007KT 10SM CLR 14/11 A3022 RMK AO2 SLP238 T01440106 $
KILN 221154Z AUTO 16006KT 10SM CLR 13/09 A3021 RMK AO2 SLP231 T01330094 10139 20106 53000 $
KILN 221054Z AUTO 17007KT 10SM CLR 13/09 A3020 RMK AO2 SLP228 T01280094 $
KILN 220954Z AUTO 18007KT 8SM CLR 14/10 A3020 RMK AO2 SLP225 T01390100 $
KILN 220854Z AUTO 18006KT 10SM CLR 13/10 A3020 RMK AO2 SLP227 T01330100 51002 $
KILN 220754Z AUTO 15003KT 10SM CLR 13/10 A3020 RMK AO2 SLP227 T01280100 $
KILN 220654Z AUTO 00000KT 10SM CLR 11/09 A3021 RMK AO2 SLP230 T01110094 $
KILN 220554Z AUTO 00000KT 10SM CLR 13/10 A3020 RMK AO2 SLP225 T01280100 10167 20128 56007 $